createdAt,value
2023-05-18T00:02:21.566Z,63.44
2023-05-18T00:04:51.473Z,63.56
2023-05-18T00:07:18.347Z,63.62
2023-05-18T00:09:47.922Z,63.64
2023-05-18T00:12:14.600Z,63.98
2023-05-18T00:14:41.327Z,63.65
2023-05-18T00:17:10.133Z,63.56
2023-05-18T00:19:37.434Z,63.93
2023-05-18T00:22:04.301Z,63.80
2023-05-18T00:24:34.467Z,63.88
2023-05-18T00:27:04.487Z,63.89
2023-05-18T00:29:33.444Z,63.65
2023-05-18T00:32:01.033Z,63.63
2023-05-18T00:34:29.975Z,64.02
2023-05-18T00:36:56.671Z,63.91
2023-05-18T00:39:28.352Z,63.91
2023-05-18T00:41:57.679Z,63.98
2023-05-18T00:44:24.294Z,64.12
2023-05-18T00:46:51.076Z,64.30
2023-05-18T00:49:19.906Z,64.42
2023-05-18T00:51:48.806Z,64.58
2023-05-18T00:54:15.505Z,64.52
2023-05-18T00:56:42.358Z,64.38
2023-05-18T00:59:12.314Z,64.69
2023-05-18T01:01:43.914Z,64.59
2023-05-18T01:04:16.280Z,64.58
2023-05-18T01:06:46.549Z,64.70
2023-05-18T01:09:13.719Z,64.64
2023-05-18T01:12:04.656Z,64.56
2023-05-18T01:14:33.338Z,64.84
2023-05-18T01:17:25.086Z,64.83
2023-05-18T01:19:51.814Z,64.58
2023-05-18T01:22:30.297Z,64.72
2023-05-18T01:24:59.961Z,64.93
2023-05-18T01:27:28.962Z,64.74
2023-05-18T01:29:57.790Z,64.79
2023-05-18T01:32:26.638Z,64.91
2023-05-18T01:34:58.701Z,64.77
2023-05-18T01:37:28.052Z,64.74
2023-05-18T01:39:56.953Z,64.83
2023-05-18T01:42:26.123Z,64.76
2023-05-18T01:44:54.419Z,65.04
2023-05-18T01:47:21.343Z,64.81
2023-05-18T01:49:56.957Z,64.74
2023-05-18T01:52:40.291Z,64.79
2023-05-18T01:55:09.664Z,64.85
2023-05-18T01:57:41.632Z,64.83
2023-05-18T02:00:10.212Z,64.73
2023-05-18T02:02:37.006Z,64.82
2023-05-18T02:05:05.577Z,64.67
2023-05-18T02:07:34.458Z,64.68
2023-05-18T02:10:03.499Z,64.60
2023-05-18T02:12:30.526Z,64.77
2023-05-18T02:15:01.063Z,64.86
2023-05-18T02:17:28.911Z,64.78
2023-05-18T02:19:58.356Z,64.67
2023-05-18T02:22:27.366Z,64.76
2023-05-18T02:24:54.075Z,64.81
2023-05-18T02:27:20.889Z,64.94
2023-05-18T02:29:49.865Z,65.44
2023-05-18T02:32:18.696Z,65.12
2023-05-18T02:34:50.199Z,65.18
2023-05-18T02:37:21.518Z,65.43
2023-05-18T02:39:51.297Z,65.50
2023-05-18T02:42:17.974Z,65.47
2023-05-18T02:44:46.956Z,65.81
2023-05-18T02:47:16.697Z,65.79
2023-05-18T02:49:43.321Z,65.72
2023-05-18T02:52:14.686Z,65.91
2023-05-18T02:54:41.366Z,65.89
2023-05-18T02:57:08.015Z,66.06
2023-05-18T02:59:37.898Z,66.06
2023-05-18T03:02:04.983Z,66.05
2023-05-18T03:04:32.069Z,66.21
2023-05-18T03:07:02.773Z,66.30
2023-05-18T03:09:29.999Z,66.23
2023-05-18T03:11:59.946Z,66.21
2023-05-18T03:14:26.748Z,66.17
2023-05-18T03:16:58.089Z,66.27
2023-05-18T03:19:27.094Z,66.19
2023-05-18T03:21:57.997Z,66.34
2023-05-18T03:24:26.899Z,66.04
2023-05-18T03:26:55.260Z,66.28
2023-05-18T03:29:24.056Z,66.01
2023-05-18T03:31:53.514Z,66.17
2023-05-18T03:34:20.293Z,66.28
2023-05-18T03:36:51.736Z,66.11
2023-05-18T03:39:20.659Z,66.19
2023-05-18T03:41:49.690Z,66.20
2023-05-18T03:44:18.500Z,66.08
2023-05-18T03:46:45.424Z,66.06
2023-05-18T03:49:12.346Z,65.95
2023-05-18T03:51:41.467Z,65.92
2023-05-18T03:54:11.163Z,66.13
2023-05-18T03:56:37.953Z,65.97
2023-05-18T03:59:05.133Z,65.99
2023-05-18T04:01:32.788Z,65.98
2023-05-18T04:04:00.473Z,65.80
2023-05-18T04:06:31.928Z,66.00
2023-05-18T04:09:02.715Z,65.92
2023-05-18T04:11:31.561Z,66.01
2023-05-18T04:14:01.002Z,65.94
2023-05-18T04:16:32.493Z,65.93
2023-05-18T04:19:00.439Z,65.79
2023-05-18T04:21:29.632Z,66.00
2023-05-18T04:23:59.899Z,66.13
2023-05-18T04:26:28.882Z,65.88
2023-05-18T04:29:00.333Z,65.77
2023-05-18T04:31:29.511Z,65.83
2023-05-18T04:33:58.948Z,65.77
2023-05-18T04:36:31.032Z,65.71
2023-05-18T04:39:03.699Z,65.72
2023-05-18T04:41:32.625Z,65.84
2023-05-18T04:44:01.007Z,65.91
2023-05-18T04:46:30.913Z,65.72
2023-05-18T04:49:02.336Z,65.99
2023-05-18T04:51:28.963Z,65.77
2023-05-18T04:53:55.783Z,64.90
2023-05-18T04:56:22.945Z,65.81
2023-05-18T04:58:52.042Z,62.67
2023-05-18T05:01:18.888Z,62.61
2023-05-18T05:03:45.770Z,62.58
2023-05-18T05:06:17.653Z,62.64
2023-05-18T05:08:49.034Z,62.60
2023-05-18T05:11:18.325Z,62.39
2023-05-18T05:13:49.651Z,62.38
2023-05-18T05:16:16.597Z,63.02
2023-05-18T05:18:47.302Z,63.28
2023-05-18T05:21:16.377Z,63.97
2023-05-18T05:23:45.298Z,64.10
2023-05-18T05:26:14.218Z,64.24
2023-05-18T05:28:43.068Z,64.45
2023-05-18T05:31:10.199Z,64.65
2023-05-18T05:33:39.506Z,64.65
2023-05-18T05:36:08.578Z,64.38
2023-05-18T05:38:35.443Z,64.16
2023-05-18T05:41:04.277Z,64.48
2023-05-18T05:43:33.187Z,64.57
2023-05-18T05:46:02.022Z,64.37
2023-05-18T05:48:31.063Z,64.58
2023-05-18T05:50:57.868Z,64.41
2023-05-18T05:53:29.820Z,64.55
2023-05-18T05:55:56.889Z,64.42
2023-05-18T05:58:25.726Z,64.35
2023-05-18T06:00:54.637Z,64.31
2023-05-18T06:03:22.035Z,64.35
2023-05-18T06:05:50.971Z,64.24
2023-05-18T06:11:02.330Z,64.42
2023-05-18T06:13:28.992Z,64.32
2023-05-18T06:15:58.003Z,64.33
2023-05-18T06:18:27.006Z,64.45
2023-05-18T06:20:58.980Z,64.29
2023-05-18T06:23:25.762Z,64.26
2023-05-18T06:25:53.317Z,64.16
2023-05-18T06:28:22.801Z,64.18
2023-05-18T06:30:49.514Z,63.94
2023-05-18T06:33:16.671Z,63.43
2023-05-18T06:35:45.522Z,61.23
2023-05-18T06:38:12.225Z,60.83
2023-05-18T06:40:38.989Z,60.02
2023-05-18T06:43:05.709Z,59.73
2023-05-18T06:45:37.625Z,59.77
2023-05-18T06:48:05.071Z,61.19
2023-05-18T06:50:31.781Z,61.02
2023-05-18T06:52:58.612Z,60.30
2023-05-18T06:55:25.292Z,60.04
2023-05-18T06:57:57.045Z,59.98
2023-05-18T07:00:28.649Z,60.01
2023-05-18T07:02:55.582Z,59.86
2023-05-18T07:05:23.396Z,59.74
2023-05-18T07:07:52.546Z,59.99
2023-05-18T07:10:21.461Z,59.81
2023-05-18T07:12:48.780Z,59.66
2023-05-18T07:15:15.630Z,59.76
2023-05-18T07:17:42.493Z,59.94
2023-05-18T07:20:10.265Z,59.95
2023-05-18T07:22:39.837Z,59.86
2023-05-18T07:25:06.746Z,59.95
2023-05-18T07:27:35.700Z,59.90
2023-05-18T07:30:04.632Z,59.69
2023-05-18T07:32:34.043Z,59.72
2023-05-18T07:35:00.896Z,58.74
2023-05-18T07:37:27.707Z,58.90
2023-05-18T07:39:56.547Z,59.27
2023-05-18T07:42:23.201Z,59.31
2023-05-18T07:44:49.933Z,58.80
2023-05-18T07:47:21.362Z,59.35
2023-05-18T07:49:48.386Z,59.01
2023-05-18T07:52:15.185Z,58.64
2023-05-18T07:54:42.184Z,58.58
2023-05-18T07:57:31.053Z,58.39
2023-05-18T07:59:57.848Z,58.42
2023-05-18T08:02:24.876Z,58.33
2023-05-18T08:04:52.048Z,58.09
2023-05-18T08:07:26.494Z,58.05
2023-05-18T08:09:58.667Z,58.22
2023-05-18T08:12:25.451Z,58.20
2023-05-18T08:14:56.991Z,58.22
2023-05-18T08:17:23.661Z,58.45
2023-05-18T08:19:53.510Z,58.16
2023-05-18T08:22:22.379Z,57.85
2023-05-18T08:24:51.248Z,57.87
2023-05-18T08:27:19.994Z,57.95
2023-05-18T08:29:46.846Z,58.11
2023-05-18T08:32:16.771Z,58.02
2023-05-18T08:34:46.821Z,57.67
2023-05-18T08:37:13.536Z,57.75
2023-05-18T08:39:40.471Z,57.63
2023-05-18T08:42:16.796Z,57.24
2023-05-18T08:45:02.670Z,57.50
2023-05-18T08:47:32.165Z,57.21
2023-05-18T08:50:01.309Z,57.45
2023-05-18T08:52:33.304Z,57.27
2023-05-18T08:55:00.229Z,57.39
2023-05-18T08:57:27.483Z,57.46
2023-05-18T08:59:54.291Z,57.14
2023-05-18T09:02:25.776Z,57.71
2023-05-18T09:04:54.814Z,57.64
2023-05-18T09:07:23.790Z,57.60
2023-05-18T09:09:52.682Z,57.55
2023-05-18T09:12:24.447Z,57.12
2023-05-18T09:14:51.550Z,57.45
2023-05-18T09:17:18.775Z,57.23
2023-05-18T09:19:45.549Z,56.79
2023-05-18T09:22:12.396Z,56.64
2023-05-18T09:24:39.538Z,56.34
2023-05-18T09:27:06.664Z,56.15
2023-05-18T09:29:34.031Z,56.63
2023-05-18T09:32:07.427Z,56.29
2023-05-18T09:34:45.575Z,56.40
2023-05-18T09:37:18.353Z,56.51
2023-05-18T09:39:48.784Z,56.72
2023-05-18T09:42:17.624Z,56.14
2023-05-18T09:44:46.194Z,55.88
2023-05-18T09:47:13.870Z,56.06
2023-05-18T09:49:43.402Z,56.42
2023-05-18T09:52:12.248Z,56.30
2023-05-18T09:54:39.959Z,56.46
2023-05-18T09:57:10.723Z,56.49
2023-05-18T09:59:42.536Z,56.43
2023-05-18T10:02:12.231Z,56.05
2023-05-18T10:04:45.350Z,55.84
2023-05-18T10:07:18.269Z,55.85
2023-05-18T10:09:47.978Z,56.02
2023-05-18T10:12:15.854Z,56.05
2023-05-18T10:14:48.709Z,56.40
2023-05-18T10:17:19.236Z,56.25
2023-05-18T10:19:49.683Z,56.19
2023-05-18T10:22:17.492Z,56.44
2023-05-18T10:24:46.144Z,56.54
2023-05-18T10:27:17.483Z,56.37
2023-05-18T10:29:44.078Z,55.71
2023-05-18T10:32:12.305Z,54.92
2023-05-18T10:34:39.149Z,55.51
2023-05-18T10:37:05.784Z,55.39
2023-05-18T10:39:37.238Z,55.11
2023-05-18T10:42:08.611Z,54.78
2023-05-18T10:44:37.550Z,54.86
2023-05-18T10:47:08.198Z,55.29
2023-05-18T10:49:37.137Z,55.19
2023-05-18T10:52:06.364Z,55.02
2023-05-18T10:54:33.570Z,54.59
2023-05-18T10:57:02.374Z,54.88
2023-05-18T10:59:29.110Z,55.14
2023-05-18T11:01:58.561Z,54.76
2023-05-18T11:04:27.133Z,54.62
2023-05-18T11:06:57.555Z,55.01
2023-05-18T11:09:28.986Z,55.26
2023-05-18T11:12:02.500Z,54.30
2023-05-18T11:14:30.220Z,54.00
2023-05-18T11:17:20.170Z,53.98
2023-05-18T11:20:09.048Z,54.05
2023-05-18T11:22:48.260Z,54.10
2023-05-18T11:25:24.130Z,54.32
2023-05-18T11:27:54.208Z,54.25
2023-05-18T11:30:50.106Z,54.64
2023-05-18T11:33:26.074Z,54.79
2023-05-18T11:36:01.476Z,54.63
2023-05-18T11:38:47.354Z,54.45
2023-05-18T11:41:36.429Z,54.87
2023-05-18T11:44:08.893Z,54.83
2023-05-18T11:46:36.675Z,54.76
2023-05-18T11:49:09.553Z,54.85
2023-05-18T11:52:24.753Z,54.66
2023-05-18T11:54:57.647Z,55.14
2023-05-18T11:57:40.481Z,55.10
2023-05-18T12:00:08.133Z,54.75
2023-05-18T12:02:35.207Z,54.46
2023-05-18T12:05:02.728Z,54.87
2023-05-18T12:07:34.116Z,54.63
2023-05-18T12:10:11.608Z,54.97
2023-05-18T12:12:39.704Z,54.93
2023-05-18T12:15:16.486Z,54.60
2023-05-18T12:17:44.833Z,54.57
2023-05-18T12:20:13.220Z,54.42
2023-05-18T12:22:43.181Z,54.53
2023-05-18T12:25:10.256Z,54.38
2023-05-18T12:27:42.746Z,54.47
2023-05-18T12:30:14.110Z,54.37
2023-05-18T12:32:49.063Z,54.24
2023-05-18T12:35:16.012Z,54.20
2023-05-18T12:37:45.158Z,54.44
2023-05-18T12:40:18.928Z,54.35
2023-05-18T12:43:03.790Z,54.31
2023-05-18T12:45:34.379Z,54.09
2023-05-18T12:48:09.754Z,54.33
2023-05-18T12:50:38.785Z,54.37
2023-05-18T12:53:05.644Z,54.29
2023-05-18T12:55:35.352Z,54.52
2023-05-18T12:58:20.874Z,54.69
2023-05-18T13:00:50.940Z,54.52
2023-05-18T13:03:21.164Z,54.85
2023-05-18T13:06:06.104Z,54.59
2023-05-18T13:08:36.526Z,54.92
2023-05-18T13:11:14.262Z,54.83
2023-05-18T13:14:00.196Z,55.23
2023-05-18T13:16:30.390Z,55.44
2023-05-18T13:19:05.613Z,55.61
2023-05-18T13:21:35.646Z,55.71
2023-05-18T13:24:05.535Z,56.23
2023-05-18T13:26:34.484Z,56.08
2023-05-18T13:29:03.267Z,56.15
2023-05-18T13:31:32.417Z,56.20
2023-05-18T13:34:04.659Z,56.64
2023-05-18T13:36:36.084Z,56.57
2023-05-18T13:39:07.226Z,56.54
2023-05-18T13:41:36.439Z,56.25
2023-05-18T13:44:05.930Z,56.57
2023-05-18T13:46:37.938Z,56.31
2023-05-18T13:49:04.940Z,56.31
2023-05-18T13:51:36.988Z,56.72
2023-05-18T13:54:07.985Z,56.14
2023-05-18T13:56:34.841Z,56.11
2023-05-18T13:59:02.076Z,56.06
2023-05-18T14:01:32.713Z,56.49
2023-05-18T14:03:59.733Z,56.05
2023-05-18T14:06:28.573Z,55.00
2023-05-18T14:08:57.330Z,56.06
2023-05-18T14:11:26.315Z,56.20
2023-05-18T14:13:55.188Z,56.53
2023-05-18T14:16:21.924Z,56.83
2023-05-18T14:18:55.996Z,56.65
2023-05-18T14:21:22.846Z,56.71
2023-05-18T14:23:49.571Z,56.05
2023-05-18T14:26:22.807Z,56.20
2023-05-18T14:28:52.219Z,56.53
2023-05-18T14:31:24.167Z,56.15
2023-05-18T14:33:53.514Z,56.42
2023-05-18T14:36:22.694Z,56.33
2023-05-18T14:38:49.430Z,56.52
2023-05-18T14:41:21.456Z,56.60
2023-05-18T14:43:51.322Z,56.51
2023-05-18T14:46:20.975Z,56.18
2023-05-18T14:48:49.983Z,56.22
2023-05-18T14:51:22.239Z,55.73
2023-05-18T14:53:55.910Z,56.05
2023-05-18T14:56:25.003Z,55.65
2023-05-18T14:58:51.719Z,55.60
2023-05-18T15:01:20.958Z,55.49
2023-05-18T15:03:47.810Z,55.78
2023-05-18T15:06:14.632Z,55.74
2023-05-18T15:08:41.358Z,56.10
2023-05-18T15:11:08.147Z,56.22
2023-05-18T15:13:37.532Z,56.36
2023-05-18T15:16:07.618Z,56.50
2023-05-18T15:18:36.603Z,56.17
2023-05-18T15:21:05.738Z,56.15
2023-05-18T15:23:32.665Z,56.34
2023-05-18T15:26:01.788Z,56.36
2023-05-18T15:28:30.964Z,56.47
2023-05-18T15:30:59.853Z,56.34
2023-05-18T15:33:29.197Z,56.36
2023-05-18T15:35:58.084Z,55.91
2023-05-18T15:38:28.953Z,56.16
2023-05-18T15:40:58.568Z,56.60
2023-05-18T15:43:26.230Z,56.67
2023-05-18T15:45:53.081Z,56.67
2023-05-18T15:48:20.117Z,56.77
2023-05-18T15:50:46.804Z,56.75
2023-05-18T15:53:15.695Z,56.81
2023-05-18T15:55:44.644Z,57.13
2023-05-18T15:58:13.584Z,57.15
2023-05-18T16:00:40.558Z,56.84
2023-05-18T16:03:09.601Z,57.28
2023-05-18T16:05:38.746Z,57.35
2023-05-18T16:08:05.893Z,57.38
2023-05-18T16:10:32.897Z,57.42
2023-05-18T16:13:06.105Z,57.41
2023-05-18T16:15:37.159Z,57.22
2023-05-18T16:18:06.714Z,57.01
2023-05-18T16:20:35.748Z,56.33
2023-05-18T16:23:04.875Z,56.10
2023-05-18T16:25:33.694Z,56.42
2023-05-18T16:28:00.505Z,56.95
2023-05-18T16:30:32.014Z,57.45
2023-05-18T16:33:01.154Z,57.76
2023-05-18T16:35:29.132Z,57.90
2023-05-18T16:37:55.959Z,57.78
2023-05-18T16:40:27.426Z,57.92
2023-05-18T16:42:58.812Z,57.90
2023-05-18T16:45:27.125Z,58.01
2023-05-18T16:47:54.178Z,58.06
2023-05-18T16:50:21.192Z,58.07
2023-05-18T16:52:50.569Z,58.36
2023-05-18T16:55:19.692Z,58.02
2023-05-18T16:57:46.369Z,58.07
2023-05-18T17:00:16.748Z,57.85
2023-05-18T17:02:45.940Z,58.04
2023-05-18T17:05:12.782Z,57.87
2023-05-18T17:07:39.406Z,57.73
2023-05-18T17:10:07.150Z,57.81
2023-05-18T17:12:36.995Z,57.76
2023-05-18T17:15:06.360Z,57.75
2023-05-18T17:17:38.647Z,58.11
2023-05-18T17:20:07.229Z,57.80
2023-05-18T17:22:34.097Z,57.57
2023-05-18T17:25:03.076Z,57.71
2023-05-18T17:27:29.865Z,57.71
2023-05-18T17:29:56.537Z,57.90
2023-05-18T17:32:23.812Z,57.84
2023-05-18T17:34:50.842Z,57.69
2023-05-18T17:37:19.774Z,57.90
2023-05-18T17:39:48.598Z,57.84
2023-05-18T17:42:18.157Z,57.66
2023-05-18T17:44:46.684Z,57.79
2023-05-18T17:47:17.600Z,57.78
2023-05-18T17:49:46.631Z,57.93
2023-05-18T17:52:13.373Z,57.83
2023-05-18T17:54:44.770Z,57.71
2023-05-18T17:57:13.727Z,57.75
2023-05-18T17:59:42.738Z,57.68
2023-05-18T18:02:11.086Z,57.67
2023-05-18T18:04:39.958Z,57.79
2023-05-18T18:07:08.849Z,58.02
2023-05-18T18:09:36.478Z,58.00
2023-05-18T18:12:05.572Z,57.91
2023-05-18T18:14:32.257Z,58.26
2023-05-18T18:17:03.618Z,58.22
2023-05-18T18:19:32.540Z,58.36
2023-05-18T18:22:01.476Z,58.43
2023-05-18T18:24:32.862Z,58.47
2023-05-18T18:26:59.585Z,58.56
2023-05-18T18:29:33.311Z,58.46
2023-05-18T18:32:00.686Z,58.55
2023-05-18T18:34:27.775Z,58.68
2023-05-18T18:36:56.904Z,58.62
2023-05-18T18:39:26.333Z,58.39
2023-05-18T18:41:55.501Z,58.83
2023-05-18T18:44:24.364Z,58.73
2023-05-18T18:46:53.502Z,58.84
2023-05-18T18:49:22.719Z,58.95
2023-05-18T18:51:49.434Z,58.95
2023-05-18T18:54:18.389Z,59.17
2023-05-18T18:56:47.752Z,58.99
2023-05-18T18:59:16.593Z,59.30
2023-05-18T19:01:45.932Z,58.81
2023-05-18T19:04:18.468Z,59.17
2023-05-18T19:06:47.010Z,59.54
2023-05-18T19:09:15.926Z,59.21
2023-05-18T19:11:45.748Z,59.40
2023-05-18T19:14:12.456Z,59.42
2023-05-18T19:16:41.402Z,59.88
2023-05-18T19:19:11.014Z,59.86
2023-05-18T19:21:38.365Z,59.80
2023-05-18T19:24:08.311Z,59.89
2023-05-18T19:26:35.021Z,59.91
2023-05-18T19:29:04.355Z,60.05
2023-05-18T19:31:34.653Z,59.90
2023-05-18T19:34:03.998Z,59.87
2023-05-18T19:36:31.311Z,59.99
2023-05-18T19:39:04.788Z,59.72
2023-05-18T19:41:31.505Z,59.89
2023-05-18T19:43:58.146Z,59.91
2023-05-18T19:46:29.909Z,59.94
2023-05-18T19:48:56.770Z,60.05
2023-05-18T19:51:25.926Z,59.91
2023-05-18T19:53:54.762Z,59.94
2023-05-18T19:56:24.318Z,59.85
2023-05-18T19:58:51.635Z,59.78
2023-05-18T20:01:19.001Z,59.95
2023-05-18T20:03:49.841Z,60.06
2023-05-18T20:06:18.674Z,60.10
2023-05-18T20:08:48.098Z,60.17
2023-05-18T20:11:15.115Z,60.13
2023-05-18T20:13:46.006Z,60.14
2023-05-18T20:16:14.969Z,60.07
2023-05-18T20:18:43.941Z,59.88
2023-05-18T20:21:10.899Z,59.70
2023-05-18T20:23:39.850Z,59.99
2023-05-18T20:26:08.670Z,59.91
2023-05-18T20:28:35.566Z,59.96
2023-05-18T20:31:04.427Z,59.93
2023-05-18T20:33:34.299Z,59.85
2023-05-18T20:36:01.883Z,59.71
2023-05-18T20:38:30.808Z,59.78
2023-05-18T20:41:01.752Z,59.73
2023-05-18T20:43:31.914Z,59.75
2023-05-18T20:46:02.739Z,59.58
2023-05-18T20:48:31.882Z,59.45
2023-05-18T20:51:03.311Z,59.57
2023-05-18T20:53:32.080Z,59.86
2023-05-18T20:56:05.541Z,59.98
2023-05-18T20:58:34.143Z,59.62
2023-05-18T21:01:07.252Z,59.62
2023-05-18T21:03:38.445Z,59.49
2023-05-18T21:06:07.586Z,59.28
2023-05-18T21:08:34.528Z,59.14
2023-05-18T21:11:01.244Z,58.87
2023-05-18T21:13:30.172Z,59.04
2023-05-18T21:15:58.991Z,59.21
2023-05-18T21:18:28.005Z,59.20
2023-05-18T21:20:57.476Z,59.20
2023-05-18T21:23:24.303Z,59.28
2023-05-18T21:25:51.102Z,58.54
2023-05-18T21:28:19.186Z,58.42
2023-05-18T21:30:48.037Z,58.16
2023-05-18T21:33:17.537Z,57.94
2023-05-18T21:35:47.217Z,59.09
2023-05-18T21:38:14.129Z,59.39
2023-05-18T21:40:44.000Z,59.47
2023-05-18T21:43:10.890Z,59.38
2023-05-18T21:45:40.052Z,59.81
2023-05-18T21:48:11.559Z,59.89
2023-05-18T21:50:38.214Z,60.06
2023-05-18T21:53:06.646Z,60.26
2023-05-18T21:55:33.468Z,60.58
2023-05-18T21:58:02.338Z,60.45
2023-05-18T22:00:31.720Z,60.49
2023-05-18T22:03:01.181Z,60.61
2023-05-18T22:05:30.005Z,60.61
2023-05-18T22:07:59.383Z,60.84
2023-05-18T22:10:26.212Z,60.86
2023-05-18T22:12:55.152Z,60.91
2023-05-18T22:15:24.044Z,60.81
2023-05-18T22:17:52.997Z,60.73
2023-05-18T22:20:19.860Z,61.05
2023-05-18T22:22:47.560Z,60.99
2023-05-18T22:25:16.476Z,60.98
2023-05-18T22:27:45.336Z,61.15
2023-05-18T22:30:15.470Z,61.04
2023-05-18T22:32:47.375Z,61.22
2023-05-18T22:35:18.332Z,61.25
2023-05-18T22:37:46.204Z,61.40
2023-05-18T22:40:13.249Z,61.38
2023-05-18T22:42:42.096Z,61.44
2023-05-18T22:45:09.940Z,61.84
2023-05-18T22:47:37.514Z,61.89
2023-05-18T22:50:05.101Z,61.89
2023-05-18T22:52:34.066Z,61.80
2023-05-18T22:55:01.451Z,61.90
2023-05-18T22:57:31.302Z,61.59
2023-05-18T23:00:01.599Z,61.72
2023-05-18T23:02:28.379Z,61.96
2023-05-18T23:04:55.144Z,61.80
2023-05-18T23:07:24.774Z,61.75
2023-05-18T23:09:52.663Z,61.83
2023-05-18T23:12:20.362Z,61.99
2023-05-18T23:14:51.750Z,62.04
2023-05-18T23:17:19.053Z,62.18
2023-05-18T23:19:48.393Z,61.84
2023-05-18T23:22:17.935Z,61.99
2023-05-18T23:24:44.654Z,61.84
2023-05-18T23:27:14.530Z,61.92
2023-05-18T23:29:43.582Z,61.78
2023-05-18T23:32:11.541Z,61.79
2023-05-18T23:34:38.568Z,61.69
2023-05-18T23:37:11.175Z,61.59
2023-05-18T23:39:44.387Z,61.62
2023-05-18T23:42:18.824Z,61.63
2023-05-18T23:44:46.560Z,61.70
2023-05-18T23:47:17.430Z,61.54
2023-05-18T23:49:46.813Z,61.61
2023-05-18T23:52:13.794Z,61.60
2023-05-18T23:54:41.139Z,61.46
2023-05-18T23:57:08.311Z,61.27
2023-05-18T23:59:35.352Z,61.46
